sensor_id;sensor_type;location;lat;lon;timestamp;temperature;humidity
20726;DHT22;10524;48.132;8.518;2022-08-02T00:01:26;13.90;99.90
20726;DHT22;10524;48.132;8.518;2022-08-02T00:03:52;13.80;99.90
20726;DHT22;10524;48.132;8.518;2022-08-02T00:06:17;13.90;99.90
20726;DHT22;10524;48.132;8.518;2022-08-02T00:08:43;14.00;99.90
20726;DHT22;10524;48.132;8.518;2022-08-02T00:11:09;14.10;99.90
20726;DHT22;10524;48.132;8.518;2022-08-02T00:13:35;14.10;99.90
20726;DHT22;10524;48.132;8.518;2022-08-02T00:16:01;14.20;99.90
20726;DHT22;10524;48.132;8.518;2022-08-02T00:18:27;14.30;99.90
20726;DHT22;10524;48.132;8.518;2022-08-02T00:20:53;14.40;99.90
20726;DHT22;10524;48.132;8.518;2022-08-02T00:23:18;14.40;99.90
20726;DHT22;10524;48.132;8.518;2022-08-02T00:25:44;14.40;99.90
20726;DHT22;10524;48.132;8.518;2022-08-02T00:28:09;14.30;99.90
20726;DHT22;10524;48.132;8.518;2022-08-02T00:30:36;14.30;99.90
20726;DHT22;10524;48.132;8.518;2022-08-02T00:33:02;14.20;99.90
20726;DHT22;10524;48.132;8.518;2022-08-02T00:35:29;14.10;99.90
20726;DHT22;10524;48.132;8.518;2022-08-02T00:37:55;14.10;99.90
20726;DHT22;10524;48.132;8.518;2022-08-02T00:40:21;14.10;99.90
20726;DHT22;10524;48.132;8.518;2022-08-02T00:42:59;14.10;99.90
20726;DHT22;10524;48.132;8.518;2022-08-02T00:45:25;14.10;99.90
20726;DHT22;10524;48.132;8.518;2022-08-02T00:47:51;14.00;99.90
20726;DHT22;10524;48.132;8.518;2022-08-02T00:50:16;13.80;99.90
20726;DHT22;10524;48.132;8.518;2022-08-02T00:52:42;13.80;99.90
20726;DHT22;10524;48.132;8.518;2022-08-02T00:55:08;13.80;99.90
20726;DHT22;10524;48.132;8.518;2022-08-02T00:57:33;13.70;99.90
20726;DHT22;10524;48.132;8.518;2022-08-02T00:59:59;13.60;99.90
20726;DHT22;10524;48.132;8.518;2022-08-02T01:02:24;13.60;99.90
20726;DHT22;10524;48.132;8.518;2022-08-02T01:04:50;13.50;99.90
20726;DHT22;10524;48.132;8.518;2022-08-02T01:07:16;13.40;99.90
20726;DHT22;10524;48.132;8.518;2022-08-02T01:09:43;13.30;99.90
20726;DHT22;10524;48.132;8.518;2022-08-02T01:12:10;13.30;99.90
20726;DHT22;10524;48.132;8.518;2022-08-02T01:14:36;13.30;99.90
20726;DHT22;10524;48.132;8.518;2022-08-02T01:17:14;13.20;99.90
20726;DHT22;10524;48.132;8.518;2022-08-02T01:19:53;13.20;99.90
20726;DHT22;10524;48.132;8.518;2022-08-02T01:30:31;13.00;99.90
20726;DHT22;10524;48.132;8.518;2022-08-02T01:33:00;13.00;99.90
20726;DHT22;10524;48.132;8.518;2022-08-02T01:35:32;13.00;99.90
20726;DHT22;10524;48.132;8.518;2022-08-02T01:38:15;12.90;99.90
20726;DHT22;10524;48.132;8.518;2022-08-02T01:40:43;13.00;99.90
20726;DHT22;10524;48.132;8.518;2022-08-02T01:43:10;13.00;99.90
20726;DHT22;10524;48.132;8.518;2022-08-02T01:45:38;12.90;99.90
20726;DHT22;10524;48.132;8.518;2022-08-02T01:48:07;13.00;99.90
20726;DHT22;10524;48.132;8.518;2022-08-02T01:50:36;13.00;99.90
20726;DHT22;10524;48.132;8.518;2022-08-02T01:53:05;13.00;99.90
20726;DHT22;10524;48.132;8.518;2022-08-02T01:55:45;13.00;99.90
20726;DHT22;10524;48.132;8.518;2022-08-02T01:58:16;13.00;99.90
20726;DHT22;10524;48.132;8.518;2022-08-02T02:00:43;12.90;99.90
20726;DHT22;10524;48.132;8.518;2022-08-02T02:03:18;12.90;99.90
20726;DHT22;10524;48.132;8.518;2022-08-02T02:05:47;12.80;99.90
20726;DHT22;10524;48.132;8.518;2022-08-02T02:08:14;12.90;99.90
20726;DHT22;10524;48.132;8.518;2022-08-02T02:10:44;12.80;99.90
20726;DHT22;10524;48.132;8.518;2022-08-02T02:13:15;12.70;99.90
20726;DHT22;10524;48.132;8.518;2022-08-02T02:15:47;12.70;99.90
20726;DHT22;10524;48.132;8.518;2022-08-02T02:18:19;12.70;99.90
20726;DHT22;10524;48.132;8.518;2022-08-02T02:20:47;12.70;99.90
20726;DHT22;10524;48.132;8.518;2022-08-02T02:23:13;12.60;99.90
20726;DHT22;10524;48.132;8.518;2022-08-02T02:25:40;12.60;99.90
20726;DHT22;10524;48.132;8.518;2022-08-02T02:28:10;12.60;99.90
20726;DHT22;10524;48.132;8.518;2022-08-02T02:30:39;12.70;99.90
20726;DHT22;10524;48.132;8.518;2022-08-02T02:33:06;12.70;99.90
20726;DHT22;10524;48.132;8.518;2022-08-02T02:35:35;12.70;99.90
20726;DHT22;10524;48.132;8.518;2022-08-02T02:38:04;12.80;99.90
20726;DHT22;10524;48.132;8.518;2022-08-02T02:40:31;12.80;99.90
20726;DHT22;10524;48.132;8.518;2022-08-02T02:42:58;12.70;99.90
20726;DHT22;10524;48.132;8.518;2022-08-02T02:45:25;12.70;99.90
20726;DHT22;10524;48.132;8.518;2022-08-02T02:47:52;12.60;99.90
20726;DHT22;10524;48.132;8.518;2022-08-02T02:50:20;12.50;99.90
20726;DHT22;10524;48.132;8.518;2022-08-02T02:52:46;12.50;99.90
20726;DHT22;10524;48.132;8.518;2022-08-02T02:55:13;12.50;99.90
20726;DHT22;10524;48.132;8.518;2022-08-02T02:57:39;12.40;99.90
20726;DHT22;10524;48.132;8.518;2022-08-02T03:00:09;12.40;99.90
20726;DHT22;10524;48.132;8.518;2022-08-02T03:02:37;12.40;99.90
20726;DHT22;10524;48.132;8.518;2022-08-02T03:05:07;12.40;99.90
20726;DHT22;10524;48.132;8.518;2022-08-02T03:07:34;12.50;99.90
20726;DHT22;10524;48.132;8.518;2022-08-02T03:10:02;12.50;99.90
20726;DHT22;10524;48.132;8.518;2022-08-02T03:12:28;12.50;99.90
20726;DHT22;10524;48.132;8.518;2022-08-02T03:14:54;12.50;99.90
20726;DHT22;10524;48.132;8.518;2022-08-02T03:17:21;12.50;99.90
20726;DHT22;10524;48.132;8.518;2022-08-02T03:19:47;12.50;99.90
20726;DHT22;10524;48.132;8.518;2022-08-02T03:22:13;12.40;99.90
20726;DHT22;10524;48.132;8.518;2022-08-02T03:24:38;12.40;99.90
20726;DHT22;10524;48.132;8.518;2022-08-02T03:27:04;12.40;99.90
20726;DHT22;10524;48.132;8.518;2022-08-02T03:29:31;12.30;99.90
20726;DHT22;10524;48.132;8.518;2022-08-02T03:31:57;12.20;99.90
20726;DHT22;10524;48.132;8.518;2022-08-02T03:34:23;12.30;99.90
20726;DHT22;10524;48.132;8.518;2022-08-02T03:36:53;12.30;99.90
20726;DHT22;10524;48.132;8.518;2022-08-02T03:39:19;12.20;99.90
20726;DHT22;10524;48.132;8.518;2022-08-02T03:41:47;12.20;99.90
20726;DHT22;10524;48.132;8.518;2022-08-02T03:44:14;12.10;99.90
20726;DHT22;10524;48.132;8.518;2022-08-02T03:46:41;12.10;99.90
20726;DHT22;10524;48.132;8.518;2022-08-02T03:49:07;12.10;99.90
20726;DHT22;10524;48.132;8.518;2022-08-02T03:51:36;12.10;99.90
20726;DHT22;10524;48.132;8.518;2022-08-02T03:54:03;12.20;99.90
20726;DHT22;10524;48.132;8.518;2022-08-02T03:56:29;12.30;99.90
20726;DHT22;10524;48.132;8.518;2022-08-02T03:59:11;12.30;99.90
20726;DHT22;10524;48.132;8.518;2022-08-02T04:01:37;12.40;99.90
20726;DHT22;10524;48.132;8.518;2022-08-02T04:04:03;12.50;99.90
20726;DHT22;10524;48.132;8.518;2022-08-02T04:06:29;12.50;99.90
20726;DHT22;10524;48.132;8.518;2022-08-02T04:08:55;12.60;99.90
20726;DHT22;10524;48.132;8.518;2022-08-02T04:11:20;12.60;99.90
20726;DHT22;10524;48.132;8.518;2022-08-02T04:13:55;12.60;99.90
20726;DHT22;10524;48.132;8.518;2022-08-02T04:16:27;12.50;99.90
20726;DHT22;10524;48.132;8.518;2022-08-02T04:19:02;12.50;99.90
20726;DHT22;10524;48.132;8.518;2022-08-02T04:21:33;12.60;99.90
20726;DHT22;10524;48.132;8.518;2022-08-02T04:24:01;12.60;99.90
20726;DHT22;10524;48.132;8.518;2022-08-02T04:26:28;12.60;99.90
20726;DHT22;10524;48.132;8.518;2022-08-02T04:28:54;12.70;99.90
20726;DHT22;10524;48.132;8.518;2022-08-02T04:31:21;12.80;99.90
20726;DHT22;10524;48.132;8.518;2022-08-02T04:33:47;12.80;99.90
20726;DHT22;10524;48.132;8.518;2022-08-02T04:36:13;13.00;99.90
20726;DHT22;10524;48.132;8.518;2022-08-02T04:38:40;13.20;99.90
20726;DHT22;10524;48.132;8.518;2022-08-02T04:41:06;13.50;99.90
20726;DHT22;10524;48.132;8.518;2022-08-02T04:43:32;13.90;99.90
20726;DHT22;10524;48.132;8.518;2022-08-02T04:45:58;14.00;99.90
20726;DHT22;10524;48.132;8.518;2022-08-02T04:48:23;14.10;99.90
20726;DHT22;10524;48.132;8.518;2022-08-02T04:50:49;14.60;99.90
20726;DHT22;10524;48.132;8.518;2022-08-02T04:53:16;15.10;99.90
20726;DHT22;10524;48.132;8.518;2022-08-02T04:55:41;15.50;99.90
20726;DHT22;10524;48.132;8.518;2022-08-02T04:58:07;15.90;99.90
20726;DHT22;10524;48.132;8.518;2022-08-02T05:00:33;16.10;99.90
20726;DHT22;10524;48.132;8.518;2022-08-02T05:02:59;16.20;99.90
20726;DHT22;10524;48.132;8.518;2022-08-02T05:05:26;16.70;99.90
20726;DHT22;10524;48.132;8.518;2022-08-02T05:07:51;16.70;99.90
20726;DHT22;10524;48.132;8.518;2022-08-02T05:10:17;16.70;99.90
20726;DHT22;10524;48.132;8.518;2022-08-02T05:12:43;16.80;99.90
20726;DHT22;10524;48.132;8.518;2022-08-02T05:15:11;17.40;99.90
20726;DHT22;10524;48.132;8.518;2022-08-02T05:17:36;17.80;99.90
20726;DHT22;10524;48.132;8.518;2022-08-02T05:20:04;18.00;99.90
20726;DHT22;10524;48.132;8.518;2022-08-02T05:22:30;18.40;99.90
20726;DHT22;10524;48.132;8.518;2022-08-02T05:24:55;19.10;99.90
20726;DHT22;10524;48.132;8.518;2022-08-02T05:27:24;19.50;99.90
20726;DHT22;10524;48.132;8.518;2022-08-02T05:29:49;19.40;99.90
20726;DHT22;10524;48.132;8.518;2022-08-02T05:32:17;19.00;99.90
20726;DHT22;10524;48.132;8.518;2022-08-02T05:34:42;18.60;99.90
20726;DHT22;10524;48.132;8.518;2022-08-02T05:37:08;18.70;99.90
20726;DHT22;10524;48.132;8.518;2022-08-02T05:39:34;18.70;99.90
20726;DHT22;10524;48.132;8.518;2022-08-02T05:41:59;19.00;99.90
20726;DHT22;10524;48.132;8.518;2022-08-02T05:44:25;19.60;99.90
20726;DHT22;10524;48.132;8.518;2022-08-02T05:46:50;20.50;99.90
20726;DHT22;10524;48.132;8.518;2022-08-02T05:49:16;21.40;99.90
20726;DHT22;10524;48.132;8.518;2022-08-02T05:51:47;22.00;99.90
20726;DHT22;10524;48.132;8.518;2022-08-02T05:54:14;22.30;99.90
20726;DHT22;10524;48.132;8.518;2022-08-02T05:59:32;23.50;99.90
20726;DHT22;10524;48.132;8.518;2022-08-02T06:02:08;23.10;99.90
20726;DHT22;10524;48.132;8.518;2022-08-02T06:04:55;21.90;99.90
20726;DHT22;10524;48.132;8.518;2022-08-02T06:07:23;21.10;99.90
20726;DHT22;10524;48.132;8.518;2022-08-02T06:09:50;20.90;99.90
20726;DHT22;10524;48.132;8.518;2022-08-02T06:12:16;21.10;99.90
20726;DHT22;10524;48.132;8.518;2022-08-02T06:14:42;21.00;99.90
20726;DHT22;10524;48.132;8.518;2022-08-02T06:17:08;20.60;99.90
20726;DHT22;10524;48.132;8.518;2022-08-02T06:19:36;20.40;99.90
20726;DHT22;10524;48.132;8.518;2022-08-02T06:22:03;20.20;99.90
20726;DHT22;10524;48.132;8.518;2022-08-02T06:24:43;20.00;99.90
20726;DHT22;10524;48.132;8.518;2022-08-02T06:27:12;20.10;99.90
20726;DHT22;10524;48.132;8.518;2022-08-02T06:29:42;20.40;99.90
20726;DHT22;10524;48.132;8.518;2022-08-02T06:32:09;20.40;99.90
20726;DHT22;10524;48.132;8.518;2022-08-02T06:34:41;20.90;99.90
20726;DHT22;10524;48.132;8.518;2022-08-02T06:37:26;21.90;99.90
20726;DHT22;10524;48.132;8.518;2022-08-02T06:40:52;24.00;99.90
20726;DHT22;10524;48.132;8.518;2022-08-02T06:42:51;26.20;99.90
20726;DHT22;10524;48.132;8.518;2022-08-02T06:45:22;26.40;99.90
20726;DHT22;10524;48.132;8.518;2022-08-02T06:47:47;27.00;99.90
20726;DHT22;10524;48.132;8.518;2022-08-02T06:50:13;28.00;99.90
20726;DHT22;10524;48.132;8.518;2022-08-02T06:52:39;29.40;99.90
20726;DHT22;10524;48.132;8.518;2022-08-02T06:55:05;30.00;99.90
20726;DHT22;10524;48.132;8.518;2022-08-02T06:57:31;30.40;99.90
20726;DHT22;10524;48.132;8.518;2022-08-02T06:59:58;30.80;99.90
20726;DHT22;10524;48.132;8.518;2022-08-02T07:02:27;29.70;99.90
20726;DHT22;10524;48.132;8.518;2022-08-02T07:04:53;28.90;99.90
20726;DHT22;10524;48.132;8.518;2022-08-02T07:07:19;28.80;99.90
20726;DHT22;10524;48.132;8.518;2022-08-02T07:09:45;29.50;99.90
20726;DHT22;10524;48.132;8.518;2022-08-02T07:12:10;30.00;99.90
20726;DHT22;10524;48.132;8.518;2022-08-02T07:14:36;30.70;99.90
20726;DHT22;10524;48.132;8.518;2022-08-02T07:17:02;30.60;99.90
20726;DHT22;10524;48.132;8.518;2022-08-02T07:19:28;31.10;99.90
20726;DHT22;10524;48.132;8.518;2022-08-02T07:21:53;31.80;99.90
20726;DHT22;10524;48.132;8.518;2022-08-02T07:24:19;32.00;99.90
20726;DHT22;10524;48.132;8.518;2022-08-02T07:26:44;31.80;99.90
20726;DHT22;10524;48.132;8.518;2022-08-02T07:29:10;31.50;99.90
20726;DHT22;10524;48.132;8.518;2022-08-02T07:31:36;31.10;99.90
20726;DHT22;10524;48.132;8.518;2022-08-02T07:34:01;30.80;99.90
20726;DHT22;10524;48.132;8.518;2022-08-02T07:36:27;30.20;99.90
20726;DHT22;10524;48.132;8.518;2022-08-02T07:38:52;29.90;99.90
20726;DHT22;10524;48.132;8.518;2022-08-02T07:41:18;31.20;99.90
20726;DHT22;10524;48.132;8.518;2022-08-02T07:43:44;31.60;99.90
20726;DHT22;10524;48.132;8.518;2022-08-02T07:46:09;32.60;99.90
20726;DHT22;10524;48.132;8.518;2022-08-02T07:48:35;31.00;99.90
20726;DHT22;10524;48.132;8.518;2022-08-02T07:51:01;30.80;99.90
20726;DHT22;10524;48.132;8.518;2022-08-02T07:53:27;31.30;99.90
20726;DHT22;10524;48.132;8.518;2022-08-02T07:55:52;31.10;99.90
20726;DHT22;10524;48.132;8.518;2022-08-02T07:58:18;31.90;99.90
20726;DHT22;10524;48.132;8.518;2022-08-02T08:00:44;32.70;99.90
20726;DHT22;10524;48.132;8.518;2022-08-02T08:03:09;33.20;99.90
20726;DHT22;10524;48.132;8.518;2022-08-02T08:05:35;32.90;99.30
20726;DHT22;10524;48.132;8.518;2022-08-02T08:08:01;32.20;99.50
20726;DHT22;10524;48.132;8.518;2022-08-02T08:10:27;32.20;99.70
20726;DHT22;10524;48.132;8.518;2022-08-02T08:12:52;33.30;99.60
20726;DHT22;10524;48.132;8.518;2022-08-02T08:15:20;35.20;99.20
20726;DHT22;10524;48.132;8.518;2022-08-02T08:17:45;36.20;98.30
20726;DHT22;10524;48.132;8.518;2022-08-02T08:20:11;37.00;97.50
20726;DHT22;10524;48.132;8.518;2022-08-02T08:22:37;36.90;96.80
20726;DHT22;10524;48.132;8.518;2022-08-02T08:25:03;37.60;96.20
20726;DHT22;10524;48.132;8.518;2022-08-02T08:27:28;38.20;95.40
20726;DHT22;10524;48.132;8.518;2022-08-02T08:29:54;38.20;94.80
20726;DHT22;10524;48.132;8.518;2022-08-02T08:32:20;38.70;94.70
20726;DHT22;10524;48.132;8.518;2022-08-02T08:34:46;39.10;93.60
20726;DHT22;10524;48.132;8.518;2022-08-02T08:37:13;38.60;93.30
20726;DHT22;10524;48.132;8.518;2022-08-02T08:39:38;37.30;94.10
20726;DHT22;10524;48.132;8.518;2022-08-02T08:42:07;37.20;93.90
20726;DHT22;10524;48.132;8.518;2022-08-02T08:44:34;37.70;93.80
20726;DHT22;10524;48.132;8.518;2022-08-02T08:47:02;37.70;92.90
20726;DHT22;10524;48.132;8.518;2022-08-02T08:49:32;35.50;93.60
20726;DHT22;10524;48.132;8.518;2022-08-02T08:52:04;34.90;94.70
20726;DHT22;10524;48.132;8.518;2022-08-02T08:54:32;36.30;94.00
20726;DHT22;10524;48.132;8.518;2022-08-02T08:56:58;37.50;93.10
20726;DHT22;10524;48.132;8.518;2022-08-02T08:59:24;37.70;93.30
20726;DHT22;10524;48.132;8.518;2022-08-02T09:01:50;38.10;93.00
20726;DHT22;10524;48.132;8.518;2022-08-02T09:04:17;38.00;92.70
20726;DHT22;10524;48.132;8.518;2022-08-02T09:06:43;37.90;92.40
20726;DHT22;10524;48.132;8.518;2022-08-02T09:09:09;37.90;92.50
20726;DHT22;10524;48.132;8.518;2022-08-02T09:11:35;38.40;92.40
20726;DHT22;10524;48.132;8.518;2022-08-02T09:14:02;39.30;91.30
20726;DHT22;10524;48.132;8.518;2022-08-02T09:16:35;38.30;91.70
20726;DHT22;10524;48.132;8.518;2022-08-02T09:19:17;37.70;92.00
20726;DHT22;10524;48.132;8.518;2022-08-02T09:21:43;38.10;91.80
20726;DHT22;10524;48.132;8.518;2022-08-02T09:24:20;36.70;92.30
20726;DHT22;10524;48.132;8.518;2022-08-02T09:26:47;36.70;92.60
20726;DHT22;10524;48.132;8.518;2022-08-02T09:29:14;37.70;92.40
20726;DHT22;10524;48.132;8.518;2022-08-02T09:31:39;36.70;92.20
20726;DHT22;10524;48.132;8.518;2022-08-02T09:34:05;36.00;92.90
20726;DHT22;10524;48.132;8.518;2022-08-02T09:36:42;34.50;93.40
20726;DHT22;10524;48.132;8.518;2022-08-02T09:39:12;34.80;93.80
20726;DHT22;10524;48.132;8.518;2022-08-02T09:41:40;34.60;93.50
20726;DHT22;10524;48.132;8.518;2022-08-02T09:44:09;35.80;93.20
20726;DHT22;10524;48.132;8.518;2022-08-02T09:46:42;37.20;92.00
20726;DHT22;10524;48.132;8.518;2022-08-02T09:49:11;36.90;92.10
20726;DHT22;10524;48.132;8.518;2022-08-02T09:51:50;38.10;91.40
20726;DHT22;10524;48.132;8.518;2022-08-02T09:54:21;37.90;91.50
20726;DHT22;10524;48.132;8.518;2022-08-02T09:56:55;38.10;91.10
20726;DHT22;10524;48.132;8.518;2022-08-02T09:59:24;38.70;90.20
20726;DHT22;10524;48.132;8.518;2022-08-02T10:01:50;39.00;89.90
20726;DHT22;10524;48.132;8.518;2022-08-02T10:04:21;38.20;90.00
20726;DHT22;10524;48.132;8.518;2022-08-02T10:06:48;37.50;89.70
20726;DHT22;10524;48.132;8.518;2022-08-02T10:09:14;36.10;91.20
20726;DHT22;10524;48.132;8.518;2022-08-02T10:11:40;35.40;91.40
20726;DHT22;10524;48.132;8.518;2022-08-02T10:14:08;36.00;91.30
20726;DHT22;10524;48.132;8.518;2022-08-02T10:16:36;36.50;91.10
20726;DHT22;10524;48.132;8.518;2022-08-02T10:19:02;38.10;90.30
20726;DHT22;10524;48.132;8.518;2022-08-02T10:21:55;36.00;91.00
20726;DHT22;10524;48.132;8.518;2022-08-02T10:24:26;34.70;91.40
20726;DHT22;10524;48.132;8.518;2022-08-02T10:26:53;35.00;91.80
20726;DHT22;10524;48.132;8.518;2022-08-02T10:29:28;35.50;91.50
20726;DHT22;10524;48.132;8.518;2022-08-02T10:31:57;34.30;92.20
20726;DHT22;10524;48.132;8.518;2022-08-02T10:34:35;34.30;92.50
20726;DHT22;10524;48.132;8.518;2022-08-02T10:37:05;36.50;91.90
20726;DHT22;10524;48.132;8.518;2022-08-02T10:39:42;37.00;91.50
20726;DHT22;10524;48.132;8.518;2022-08-02T10:42:08;36.00;91.80
20726;DHT22;10524;48.132;8.518;2022-08-02T10:44:35;35.70;91.40
20726;DHT22;10524;48.132;8.518;2022-08-02T10:49:50;36.40;92.20
20726;DHT22;10524;48.132;8.518;2022-08-02T10:52:17;34.60;91.70
20726;DHT22;10524;48.132;8.518;2022-08-02T10:55:00;32.50;92.70
20726;DHT22;10524;48.132;8.518;2022-08-02T10:57:27;31.20;94.50
20726;DHT22;10524;48.132;8.518;2022-08-02T11:00:40;32.60;94.10
20726;DHT22;10524;48.132;8.518;2022-08-02T11:02:42;34.90;92.20
20726;DHT22;10524;48.132;8.518;2022-08-02T11:05:18;37.30;90.90
20726;DHT22;10524;48.132;8.518;2022-08-02T11:07:46;38.90;89.70
20726;DHT22;10524;48.132;8.518;2022-08-02T11:13:05;39.90;87.40
20726;DHT22;10524;48.132;8.518;2022-08-02T11:16:00;39.00;88.20
20726;DHT22;10524;48.132;8.518;2022-08-02T11:21:25;37.30;90.20
20726;DHT22;10524;48.132;8.518;2022-08-02T11:23:52;38.90;88.40
20726;DHT22;10524;48.132;8.518;2022-08-02T11:29:00;40.10;86.20
20726;DHT22;10524;48.132;8.518;2022-08-02T11:31:27;41.50;85.70
20726;DHT22;10524;48.132;8.518;2022-08-02T11:33:54;40.90;84.80
20726;DHT22;10524;48.132;8.518;2022-08-02T11:36:19;40.90;85.30
20726;DHT22;10524;48.132;8.518;2022-08-02T11:38:45;41.60;83.90
20726;DHT22;10524;48.132;8.518;2022-08-02T11:41:19;40.20;85.30
20726;DHT22;10524;48.132;8.518;2022-08-02T11:43:44;38.30;86.50
20726;DHT22;10524;48.132;8.518;2022-08-02T11:46:14;35.90;89.60
20726;DHT22;10524;48.132;8.518;2022-08-02T11:48:41;37.10;88.70
20726;DHT22;10524;48.132;8.518;2022-08-02T11:51:16;36.90;89.90
20726;DHT22;10524;48.132;8.518;2022-08-02T11:53:52;36.40;90.00
20726;DHT22;10524;48.132;8.518;2022-08-02T11:56:29;37.20;88.70
20726;DHT22;10524;48.132;8.518;2022-08-02T11:59:08;38.10;87.70
20726;DHT22;10524;48.132;8.518;2022-08-02T12:01:36;37.90;87.10
20726;DHT22;10524;48.132;8.518;2022-08-02T12:04:03;37.50;88.20
20726;DHT22;10524;48.132;8.518;2022-08-02T12:06:29;38.10;86.90
20726;DHT22;10524;48.132;8.518;2022-08-02T12:09:10;39.40;84.90
20726;DHT22;10524;48.132;8.518;2022-08-02T12:11:39;38.80;84.70
20726;DHT22;10524;48.132;8.518;2022-08-02T12:14:06;39.30;84.40
20726;DHT22;10524;48.132;8.518;2022-08-02T12:16:39;39.80;84.20
20726;DHT22;10524;48.132;8.518;2022-08-02T12:19:25;40.40;82.20
20726;DHT22;10524;48.132;8.518;2022-08-02T12:22:11;40.60;81.00
20726;DHT22;10524;48.132;8.518;2022-08-02T12:24:39;40.60;81.60
20726;DHT22;10524;48.132;8.518;2022-08-02T12:27:05;41.70;81.70
20726;DHT22;10524;48.132;8.518;2022-08-02T12:29:37;39.70;83.50
20726;DHT22;10524;48.132;8.518;2022-08-02T12:32:04;39.20;83.70
20726;DHT22;10524;48.132;8.518;2022-08-02T12:34:31;38.00;85.20
20726;DHT22;10524;48.132;8.518;2022-08-02T12:37:08;36.90;85.90
20726;DHT22;10524;48.132;8.518;2022-08-02T12:42:07;31.60;91.20
20726;DHT22;10524;48.132;8.518;2022-08-02T12:44:36;30.90;92.00
20726;DHT22;10524;48.132;8.518;2022-08-02T12:47:07;32.80;91.20
20726;DHT22;10524;48.132;8.518;2022-08-02T12:49:36;35.30;90.00
20726;DHT22;10524;48.132;8.518;2022-08-02T12:52:20;36.70;88.00
20726;DHT22;10524;48.132;8.518;2022-08-02T12:54:46;35.80;85.90
20726;DHT22;10524;48.132;8.518;2022-08-02T12:57:15;33.60;89.30
20726;DHT22;10524;48.132;8.518;2022-08-02T12:59:43;33.30;90.40
20726;DHT22;10524;48.132;8.518;2022-08-02T13:02:10;33.60;90.30
20726;DHT22;10524;48.132;8.518;2022-08-02T13:04:36;33.20;90.40
20726;DHT22;10524;48.132;8.518;2022-08-02T13:07:03;32.80;90.20
20726;DHT22;10524;48.132;8.518;2022-08-02T13:09:41;31.90;90.80
20726;DHT22;10524;48.132;8.518;2022-08-02T13:12:11;31.40;91.50
20726;DHT22;10524;48.132;8.518;2022-08-02T13:14:36;33.50;91.20
20726;DHT22;10524;48.132;8.518;2022-08-02T13:17:02;35.50;89.60
20726;DHT22;10524;48.132;8.518;2022-08-02T13:19:28;35.80;87.70
20726;DHT22;10524;48.132;8.518;2022-08-02T13:21:54;35.90;87.80
20726;DHT22;10524;48.132;8.518;2022-08-02T13:24:20;35.90;87.30
20726;DHT22;10524;48.132;8.518;2022-08-02T13:26:45;33.60;90.10
20726;DHT22;10524;48.132;8.518;2022-08-02T13:29:12;33.30;90.10
20726;DHT22;10524;48.132;8.518;2022-08-02T13:31:38;31.90;90.70
20726;DHT22;10524;48.132;8.518;2022-08-02T13:34:07;32.70;90.90
20726;DHT22;10524;48.132;8.518;2022-08-02T13:36:34;34.60;89.50
20726;DHT22;10524;48.132;8.518;2022-08-02T13:39:01;35.40;88.20
20726;DHT22;10524;48.132;8.518;2022-08-02T13:41:27;34.80;87.80
20726;DHT22;10524;48.132;8.518;2022-08-02T13:43:53;33.50;89.80
20726;DHT22;10524;48.132;8.518;2022-08-02T13:46:19;34.50;89.00
20726;DHT22;10524;48.132;8.518;2022-08-02T13:48:44;35.50;88.40
20726;DHT22;10524;48.132;8.518;2022-08-02T13:51:10;34.60;87.00
20726;DHT22;10524;48.132;8.518;2022-08-02T13:53:38;33.90;88.10
20726;DHT22;10524;48.132;8.518;2022-08-02T13:56:04;35.10;87.60
20726;DHT22;10524;48.132;8.518;2022-08-02T13:58:30;36.00;87.70
20726;DHT22;10524;48.132;8.518;2022-08-02T14:00:55;36.30;86.70
20726;DHT22;10524;48.132;8.518;2022-08-02T14:03:21;37.00;86.00
20726;DHT22;10524;48.132;8.518;2022-08-02T14:05:46;36.40;85.80
20726;DHT22;10524;48.132;8.518;2022-08-02T14:08:12;34.80;87.40
20726;DHT22;10524;48.132;8.518;2022-08-02T14:10:39;35.00;87.40
20726;DHT22;10524;48.132;8.518;2022-08-02T14:13:04;36.00;87.40
20726;DHT22;10524;48.132;8.518;2022-08-02T14:15:30;36.20;87.30
20726;DHT22;10524;48.132;8.518;2022-08-02T14:17:56;36.10;86.90
20726;DHT22;10524;48.132;8.518;2022-08-02T14:20:21;35.10;88.00
20726;DHT22;10524;48.132;8.518;2022-08-02T14:22:47;35.40;87.90
20726;DHT22;10524;48.132;8.518;2022-08-02T14:25:13;36.30;87.00
20726;DHT22;10524;48.132;8.518;2022-08-02T14:27:38;36.80;85.70
20726;DHT22;10524;48.132;8.518;2022-08-02T14:30:04;36.60;85.40
20726;DHT22;10524;48.132;8.518;2022-08-02T14:32:30;35.60;85.20
20726;DHT22;10524;48.132;8.518;2022-08-02T14:34:55;35.70;85.90
20726;DHT22;10524;48.132;8.518;2022-08-02T14:37:21;35.40;86.90
20726;DHT22;10524;48.132;8.518;2022-08-02T14:39:47;35.30;85.30
20726;DHT22;10524;48.132;8.518;2022-08-02T14:42:12;35.60;85.70
20726;DHT22;10524;48.132;8.518;2022-08-02T14:44:38;36.30;85.40
20726;DHT22;10524;48.132;8.518;2022-08-02T14:47:04;36.00;84.50
20726;DHT22;10524;48.132;8.518;2022-08-02T14:49:34;35.40;85.20
20726;DHT22;10524;48.132;8.518;2022-08-02T14:51:59;34.80;85.60
20726;DHT22;10524;48.132;8.518;2022-08-02T14:54:26;35.00;86.00
20726;DHT22;10524;48.132;8.518;2022-08-02T14:56:57;35.00;86.30
20726;DHT22;10524;48.132;8.518;2022-08-02T14:59:27;35.40;86.30
20726;DHT22;10524;48.132;8.518;2022-08-02T15:01:53;35.50;85.50
20726;DHT22;10524;48.132;8.518;2022-08-02T15:04:19;35.80;86.10
20726;DHT22;10524;48.132;8.518;2022-08-02T15:06:44;36.00;85.00
20726;DHT22;10524;48.132;8.518;2022-08-02T15:09:10;36.40;84.60
20726;DHT22;10524;48.132;8.518;2022-08-02T15:11:37;36.60;84.20
20726;DHT22;10524;48.132;8.518;2022-08-02T15:14:03;36.80;83.20
20726;DHT22;10524;48.132;8.518;2022-08-02T15:16:29;36.60;84.20
20726;DHT22;10524;48.132;8.518;2022-08-02T15:19:04;36.00;84.70
20726;DHT22;10524;48.132;8.518;2022-08-02T15:21:30;36.00;85.00
20726;DHT22;10524;48.132;8.518;2022-08-02T15:23:56;36.10;84.10
20726;DHT22;10524;48.132;8.518;2022-08-02T15:26:22;36.20;84.20
20726;DHT22;10524;48.132;8.518;2022-08-02T15:28:48;35.60;83.80
20726;DHT22;10524;48.132;8.518;2022-08-02T15:31:14;35.10;85.30
20726;DHT22;10524;48.132;8.518;2022-08-02T15:33:40;35.00;84.90
20726;DHT22;10524;48.132;8.518;2022-08-02T15:36:06;35.50;85.00
20726;DHT22;10524;48.132;8.518;2022-08-02T15:38:32;35.60;84.10
20726;DHT22;10524;48.132;8.518;2022-08-02T15:40:58;36.00;83.90
20726;DHT22;10524;48.132;8.518;2022-08-02T15:43:24;35.60;83.30
20726;DHT22;10524;48.132;8.518;2022-08-02T15:45:49;34.50;84.70
20726;DHT22;10524;48.132;8.518;2022-08-02T15:48:15;33.60;86.60
20726;DHT22;10524;48.132;8.518;2022-08-02T15:50:42;32.40;88.00
20726;DHT22;10524;48.132;8.518;2022-08-02T15:53:07;32.40;89.10
20726;DHT22;10524;48.132;8.518;2022-08-02T15:55:33;32.90;88.20
20726;DHT22;10524;48.132;8.518;2022-08-02T15:57:59;33.70;87.10
20726;DHT22;10524;48.132;8.518;2022-08-02T16:00:24;34.80;85.50